KERI

Erie International Airport

Airport
ICAO code
KERI
IATA Code
ERI
Summary
ICAO Region
NAM
ICAO Territory
Location

Erie, Pennsylvania

Serving
Erie
Elevation
732 ft
Coordinates
42° 4' 55" N , 80° 10' 34" W
KCC
Airport GND
Aircraft Ground De/Anti Icing
Airport RE
Landing on Contaminated Runways
Metar
KERI 142351Z 16003KT 10SM BKN070 BKN090 15/08 A2969 RMK AO2 SLP052 60000 T01500083 10211 20139 53011

Erie International Airport, also known as Tom Ridge Field, is a public use airport located 5 nm southwest of the central business district of Erie, a city in Erie County, Pennsylvania, USA.

Airport map

Aerial View

SKYbrary Partners:

Safety knowledge contributed by: